createdAt,value
2022-10-06T00:00:48.629Z,12.90
2022-10-06T00:03:15.777Z,12.90
2022-10-06T00:05:43.375Z,12.90
2022-10-06T00:08:10.753Z,12.90
2022-10-06T00:10:37.463Z,12.90
2022-10-06T00:13:04.090Z,12.80
2022-10-06T00:15:32.626Z,12.80
2022-10-06T00:18:00.728Z,12.80
2022-10-06T00:20:28.359Z,12.80
2022-10-06T00:22:56.962Z,12.80
2022-10-06T00:25:25.271Z,12.80
2022-10-06T00:27:52.921Z,12.80
2022-10-06T00:30:27.670Z,12.80
2022-10-06T00:33:04.526Z,12.80
2022-10-06T00:35:33.621Z,12.80
2022-10-06T00:38:01.425Z,12.80
2022-10-06T00:40:28.842Z,12.70
2022-10-06T00:42:59.157Z,12.70
2022-10-06T00:45:39.377Z,12.70
2022-10-06T00:48:11.496Z,12.70
2022-10-06T00:50:38.847Z,12.70
2022-10-06T00:53:06.480Z,12.70
2022-10-06T00:55:33.111Z,12.60
2022-10-06T00:58:01.082Z,12.60
2022-10-06T01:00:28.499Z,12.60
2022-10-06T01:03:05.008Z,12.60
2022-10-06T01:05:36.947Z,12.50
2022-10-06T01:08:03.506Z,12.50
2022-10-06T01:10:30.128Z,12.50
2022-10-06T01:12:57.232Z,12.50
2022-10-06T01:15:25.419Z,12.50
2022-10-06T01:17:57.499Z,12.40
2022-10-06T01:20:24.615Z,12.40
2022-10-06T01:22:57.969Z,12.30
2022-10-06T01:25:24.776Z,12.30
2022-10-06T01:27:53.845Z,12.30
2022-10-06T01:30:29.982Z,12.30
2022-10-06T01:32:57.356Z,12.30
2022-10-06T01:35:24.242Z,12.30
2022-10-06T01:37:50.855Z,12.30
2022-10-06T01:40:17.467Z,12.20
2022-10-06T01:42:44.055Z,12.20
2022-10-06T01:45:10.832Z,12.20
2022-10-06T01:47:37.603Z,12.30
2022-10-06T01:50:06.613Z,12.20
2022-10-06T01:52:34.578Z,12.20
2022-10-06T01:55:01.405Z,12.20
2022-10-06T01:57:27.974Z,12.20
2022-10-06T01:59:55.040Z,12.20
2022-10-06T02:02:21.852Z,12.20
2022-10-06T02:04:48.469Z,12.20
2022-10-06T02:07:15.075Z,12.10
2022-10-06T02:09:41.676Z,12.10
2022-10-06T02:12:08.284Z,12.10
2022-10-06T02:14:34.885Z,12.10
2022-10-06T02:17:01.553Z,12.10
2022-10-06T02:19:28.215Z,12.10
2022-10-06T02:21:55.858Z,12.10
2022-10-06T02:24:22.421Z,12.10
2022-10-06T02:26:49.166Z,12.00
2022-10-06T02:29:15.767Z,12.00
2022-10-06T02:31:42.482Z,12.00
2022-10-06T02:34:09.774Z,12.00
2022-10-06T02:36:36.357Z,12.00
2022-10-06T02:39:03.285Z,12.00
2022-10-06T02:41:30.886Z,12.00
2022-10-06T02:43:57.511Z,12.00
2022-10-06T02:46:24.271Z,12.00
2022-10-06T02:48:52.082Z,12.00
2022-10-06T02:51:20.770Z,11.90
2022-10-06T02:53:48.724Z,11.90
2022-10-06T02:56:18.543Z,11.90
2022-10-06T02:58:47.730Z,11.90
2022-10-06T03:01:17.205Z,11.90
2022-10-06T03:03:44.148Z,11.80
2022-10-06T03:06:22.197Z,11.80
2022-10-06T03:08:52.762Z,11.80
2022-10-06T03:11:21.437Z,11.80
2022-10-06T03:13:49.797Z,11.80
2022-10-06T03:16:25.284Z,11.80
2022-10-06T03:18:54.370Z,11.80
2022-10-06T03:21:26.543Z,11.70
2022-10-06T03:23:54.712Z,11.70
2022-10-06T03:26:27.769Z,11.70
2022-10-06T03:28:55.290Z,11.70
2022-10-06T03:31:22.728Z,11.70
2022-10-06T03:33:50.626Z,11.70
2022-10-06T03:36:19.566Z,11.70
2022-10-06T03:38:46.688Z,11.70
2022-10-06T03:41:17.475Z,11.70
2022-10-06T03:43:46.507Z,11.70
2022-10-06T03:46:15.552Z,11.60
2022-10-06T03:48:42.491Z,11.60
2022-10-06T03:51:15.934Z,11.60
2022-10-06T03:53:48.209Z,11.60
2022-10-06T03:56:18.514Z,11.50
2022-10-06T03:58:48.916Z,11.60
2022-10-06T04:01:26.185Z,11.60
2022-10-06T04:03:55.546Z,11.50
2022-10-06T04:06:23.475Z,11.60
2022-10-06T04:08:51.636Z,11.60
2022-10-06T04:11:38.690Z,11.50
2022-10-06T04:14:07.773Z,11.50
2022-10-06T04:16:39.897Z,11.50
2022-10-06T04:19:09.880Z,11.40
2022-10-06T04:21:37.706Z,11.40
2022-10-06T04:24:05.817Z,11.40
2022-10-06T04:26:36.355Z,11.40
2022-10-06T04:29:03.538Z,11.40
2022-10-06T04:31:37.049Z,11.40
2022-10-06T04:34:04.513Z,11.40
2022-10-06T04:36:33.478Z,11.40
2022-10-06T04:39:03.135Z,11.40
2022-10-06T04:41:35.835Z,11.40
2022-10-06T04:44:04.185Z,11.30
2022-10-06T04:46:47.708Z,11.30
2022-10-06T04:49:19.679Z,11.30
2022-10-06T04:51:50.174Z,11.20
2022-10-06T04:54:17.197Z,11.30
2022-10-06T04:56:43.836Z,11.20
2022-10-06T04:59:10.511Z,11.20
2022-10-06T05:01:37.754Z,11.10
2022-10-06T05:04:06.198Z,11.20
2022-10-06T05:06:38.982Z,11.20
2022-10-06T05:09:08.374Z,11.10
2022-10-06T05:11:35.508Z,11.10
2022-10-06T05:14:02.175Z,11.10
2022-10-06T05:16:30.624Z,11.10
2022-10-06T05:18:57.906Z,11.10
2022-10-06T05:21:32.750Z,11.10
2022-10-06T05:23:59.795Z,11.20
2022-10-06T05:26:28.821Z,11.10
2022-10-06T05:28:55.599Z,11.10
2022-10-06T05:31:24.897Z,11.10
2022-10-06T05:33:51.542Z,11.10
2022-10-06T05:36:20.553Z,11.10
2022-10-06T05:38:47.495Z,11.10
2022-10-06T05:41:15.448Z,11.10
2022-10-06T05:43:42.521Z,11.10
2022-10-06T05:46:20.148Z,11.00
2022-10-06T05:48:48.992Z,10.90
2022-10-06T05:51:17.138Z,11.00
2022-10-06T05:53:44.331Z,11.00
2022-10-06T05:56:13.574Z,11.10
2022-10-06T05:58:42.427Z,11.00
2022-10-06T06:01:10.502Z,11.00
2022-10-06T06:03:37.979Z,11.00
2022-10-06T06:06:14.300Z,11.10
2022-10-06T06:08:40.881Z,11.00
2022-10-06T06:11:08.184Z,11.10
2022-10-06T06:13:35.753Z,11.10
2022-10-06T06:16:05.908Z,11.20
2022-10-06T06:18:35.722Z,11.20
2022-10-06T06:21:04.964Z,11.30
2022-10-06T06:23:42.645Z,11.30
2022-10-06T06:26:11.709Z,11.30
2022-10-06T06:28:38.526Z,11.40
2022-10-06T06:31:10.791Z,11.40
2022-10-06T06:33:39.432Z,11.50
2022-10-06T06:36:47.333Z,11.50
2022-10-06T06:39:15.060Z,11.60
2022-10-06T06:41:46.880Z,11.60
2022-10-06T06:44:14.021Z,11.60
2022-10-06T06:46:43.172Z,11.70
2022-10-06T06:49:11.818Z,11.70
2022-10-06T06:51:41.139Z,11.80
2022-10-06T06:54:08.651Z,11.80
2022-10-06T06:56:36.757Z,11.90
2022-10-06T06:59:11.742Z,11.90
2022-10-06T07:01:44.222Z,12.00
2022-10-06T07:04:12.673Z,12.00
2022-10-06T07:06:40.638Z,12.10
2022-10-06T07:09:08.316Z,12.20
2022-10-06T07:11:39.904Z,12.20
2022-10-06T07:14:12.345Z,12.20
2022-10-06T07:16:57.640Z,12.30
2022-10-06T07:19:42.894Z,12.30
2022-10-06T07:22:28.628Z,12.40
2022-10-06T07:25:07.408Z,12.40
2022-10-06T07:27:42.805Z,12.50
2022-10-06T07:30:21.008Z,12.50
2022-10-06T07:32:50.122Z,12.60
2022-10-06T07:35:21.816Z,12.60
2022-10-06T07:37:51.276Z,12.60
2022-10-06T07:40:18.457Z,12.60
2022-10-06T07:42:48.120Z,12.70
2022-10-06T07:45:38.487Z,12.70
2022-10-06T07:48:14.310Z,12.80
2022-10-06T07:50:42.055Z,12.80
2022-10-06T07:53:09.118Z,12.90
2022-10-06T07:55:39.913Z,13.00
2022-10-06T07:58:18.263Z,13.00
2022-10-06T08:00:46.475Z,13.20
2022-10-06T08:03:17.798Z,13.20
2022-10-06T08:05:45.792Z,13.30
2022-10-06T08:08:12.394Z,13.40
2022-10-06T08:10:38.954Z,13.50
2022-10-06T08:13:06.588Z,13.50
2022-10-06T08:15:33.856Z,13.50
2022-10-06T08:18:01.447Z,13.60
2022-10-06T08:20:28.084Z,13.60
2022-10-06T08:22:55.172Z,13.60
2022-10-06T08:25:21.758Z,13.70
2022-10-06T08:27:53.299Z,13.60
2022-10-06T08:30:20.207Z,13.60
2022-10-06T08:32:47.457Z,13.70
2022-10-06T08:35:14.242Z,13.80
2022-10-06T08:37:41.057Z,13.80
2022-10-06T08:40:12.311Z,13.90
2022-10-06T08:42:42.537Z,13.90
2022-10-06T08:45:27.996Z,14.00
2022-10-06T08:48:16.905Z,14.10
2022-10-06T08:51:19.567Z,14.20
2022-10-06T08:54:21.633Z,14.30
2022-10-06T08:57:13.051Z,14.40
2022-10-06T08:59:42.288Z,14.50
2022-10-06T09:02:38.913Z,14.70
2022-10-06T09:05:06.464Z,14.80
2022-10-06T09:08:25.258Z,14.90
2022-10-06T09:11:06.793Z,15.00
2022-10-06T09:13:38.339Z,15.20
2022-10-06T09:16:12.432Z,15.30
2022-10-06T09:19:07.708Z,15.40
2022-10-06T09:21:40.761Z,15.40
2022-10-06T09:24:20.016Z,15.50
2022-10-06T09:26:50.683Z,15.60
2022-10-06T09:29:17.663Z,15.70
2022-10-06T09:31:51.025Z,15.70
2022-10-06T09:34:45.514Z,15.80
2022-10-06T09:37:13.506Z,15.90
2022-10-06T09:39:43.024Z,15.90
2022-10-06T09:42:12.585Z,16.00
2022-10-06T09:45:04.805Z,16.10
2022-10-06T09:47:45.014Z,16.10
2022-10-06T09:50:25.524Z,16.20
2022-10-06T09:52:58.134Z,16.20
2022-10-06T09:55:47.373Z,16.30
2022-10-06T09:58:24.024Z,16.40
2022-10-06T10:01:03.614Z,16.40
2022-10-06T10:04:18.969Z,16.40
2022-10-06T10:06:41.629Z,16.50
2022-10-06T10:09:21.542Z,16.60
2022-10-06T10:12:19.323Z,16.60
2022-10-06T10:14:46.068Z,16.60
2022-10-06T10:17:20.242Z,16.70
2022-10-06T10:19:54.828Z,16.70
2022-10-06T10:22:42.221Z,16.80
2022-10-06T10:25:36.727Z,16.90
2022-10-06T10:28:30.622Z,16.90
2022-10-06T10:31:17.045Z,17.00
2022-10-06T10:34:11.924Z,17.00
2022-10-06T10:37:08.609Z,17.10
2022-10-06T10:39:48.258Z,17.20
2022-10-06T10:42:25.817Z,17.20
2022-10-06T10:44:59.970Z,17.30
2022-10-06T10:47:34.148Z,17.30
2022-10-06T10:50:26.306Z,17.40
2022-10-06T10:53:14.039Z,17.40
2022-10-06T10:55:46.581Z,17.40
2022-10-06T10:58:38.507Z,17.50
2022-10-06T11:01:29.803Z,17.60
2022-10-06T11:03:57.751Z,17.60
2022-10-06T11:06:54.267Z,17.70
2022-10-06T11:10:02.524Z,17.70
2022-10-06T11:13:10.520Z,17.80
2022-10-06T11:15:53.205Z,17.80
2022-10-06T11:18:38.698Z,17.80
2022-10-06T11:21:16.527Z,17.80
2022-10-06T11:23:50.918Z,17.90
2022-10-06T11:26:39.798Z,17.90
2022-10-06T11:29:43.042Z,18.00
2022-10-06T11:32:31.279Z,18.10
2022-10-06T11:34:58.827Z,18.20
2022-10-06T11:37:46.809Z,18.20
2022-10-06T11:40:16.602Z,18.30
2022-10-06T11:42:47.486Z,18.30
2022-10-06T11:45:23.455Z,18.40
2022-10-06T11:48:04.045Z,18.40
2022-10-06T11:50:39.118Z,18.50
2022-10-06T11:53:13.879Z,18.60
2022-10-06T11:55:40.481Z,18.60
2022-10-06T12:01:01.992Z,18.60
2022-10-06T12:03:28.564Z,18.70
2022-10-06T12:05:56.825Z,18.70
2022-10-06T12:08:36.826Z,18.80
2022-10-06T12:11:03.849Z,18.80
2022-10-06T12:19:49.438Z,19.10
2022-10-06T12:22:35.047Z,19.20
2022-10-06T12:25:05.219Z,19.20
2022-10-06T12:28:00.184Z,19.20
2022-10-06T12:31:00.436Z,19.20
2022-10-06T12:33:39.392Z,19.20
2022-10-06T12:36:28.217Z,19.20
2022-10-06T12:39:06.965Z,19.20
2022-10-06T12:41:53.865Z,19.20
2022-10-06T12:44:31.633Z,19.30
2022-10-06T12:47:03.849Z,19.30
2022-10-06T12:49:59.738Z,19.30
2022-10-06T12:52:50.437Z,19.30
2022-10-06T12:55:56.346Z,19.30
2022-10-06T12:58:33.777Z,19.30
2022-10-06T13:01:05.415Z,19.40
2022-10-06T13:03:32.453Z,19.40
2022-10-06T13:06:03.114Z,19.30
2022-10-06T13:08:35.399Z,19.30
2022-10-06T13:11:23.195Z,19.20
2022-10-06T13:13:55.038Z,19.20
2022-10-06T13:16:31.503Z,19.10
2022-10-06T13:19:01.179Z,19.20
2022-10-06T13:21:29.908Z,19.30
2022-10-06T13:23:56.973Z,19.40
2022-10-06T13:26:27.650Z,19.40
2022-10-06T13:28:58.912Z,19.50
2022-10-06T13:31:27.109Z,19.50
2022-10-06T13:34:04.479Z,19.50
2022-10-06T13:36:41.883Z,19.50
2022-10-06T13:39:13.113Z,19.60
2022-10-06T13:42:03.368Z,19.50
2022-10-06T13:44:42.161Z,19.50
2022-10-06T13:47:17.553Z,19.60
2022-10-06T13:49:49.670Z,19.60
2022-10-06T13:52:40.996Z,19.60
2022-10-06T13:55:20.632Z,19.60
2022-10-06T13:57:49.447Z,19.60
2022-10-06T14:00:20.774Z,19.60
2022-10-06T14:02:55.352Z,19.50
2022-10-06T14:05:29.285Z,19.50
2022-10-06T14:08:02.528Z,19.50
2022-10-06T14:10:48.846Z,19.50
2022-10-06T14:13:21.787Z,19.60
2022-10-06T14:15:51.383Z,19.60
2022-10-06T14:18:28.846Z,19.50
2022-10-06T14:20:57.074Z,19.60
2022-10-06T14:23:52.280Z,19.60
2022-10-06T14:26:24.787Z,19.50
2022-10-06T14:28:52.903Z,19.40
2022-10-06T14:31:21.974Z,19.50
2022-10-06T14:33:52.548Z,19.50
2022-10-06T14:36:22.701Z,19.50
2022-10-06T14:38:50.848Z,19.40
2022-10-06T14:41:24.724Z,19.40
2022-10-06T14:44:02.729Z,19.40
2022-10-06T14:46:30.091Z,19.40
2022-10-06T14:48:57.124Z,19.40
2022-10-06T14:51:25.552Z,19.40
2022-10-06T14:53:56.664Z,19.40
2022-10-06T14:56:25.518Z,19.40
2022-10-06T14:58:52.879Z,19.50
2022-10-06T15:01:23.151Z,19.40
2022-10-06T15:04:04.517Z,19.50
2022-10-06T15:07:09.804Z,19.40
2022-10-06T15:09:36.371Z,19.50
2022-10-06T15:12:03.272Z,19.40
2022-10-06T15:14:30.169Z,19.40
2022-10-06T15:16:59.908Z,19.40
2022-10-06T15:19:26.622Z,19.40
2022-10-06T15:21:53.262Z,19.30
2022-10-06T15:24:19.964Z,19.30
2022-10-06T15:27:05.298Z,19.40
2022-10-06T15:29:34.625Z,19.40
2022-10-06T15:32:02.594Z,19.40
2022-10-06T15:34:33.390Z,19.30
2022-10-06T15:37:00.942Z,19.30
2022-10-06T15:39:29.946Z,19.30
2022-10-06T15:41:57.667Z,19.30
2022-10-06T15:44:26.405Z,19.20
2022-10-06T15:46:55.012Z,19.20
2022-10-06T15:49:22.792Z,19.10
2022-10-06T15:51:52.356Z,19.10
2022-10-06T15:54:22.257Z,19.10
2022-10-06T15:56:51.130Z,19.00
2022-10-06T15:59:23.963Z,19.00
2022-10-06T16:01:57.021Z,19.00
2022-10-06T16:04:38.878Z,19.00
2022-10-06T16:07:17.331Z,19.00
2022-10-06T16:09:49.182Z,19.00
2022-10-06T16:12:22.314Z,18.90
2022-10-06T16:14:52.257Z,19.00
2022-10-06T16:17:19.093Z,18.90
2022-10-06T16:19:46.836Z,18.90
2022-10-06T16:22:15.993Z,18.90
2022-10-06T16:24:42.763Z,18.90
2022-10-06T16:27:14.352Z,18.80
2022-10-06T16:29:41.447Z,18.80
2022-10-06T16:32:08.155Z,18.80
2022-10-06T16:34:34.766Z,18.70
2022-10-06T16:37:04.614Z,18.70
2022-10-06T16:39:31.701Z,18.60
2022-10-06T16:42:00.538Z,18.60
2022-10-06T16:44:33.255Z,18.60
2022-10-06T16:47:00.200Z,18.60
2022-10-06T16:49:28.152Z,18.50
2022-10-06T16:51:55.770Z,18.50
2022-10-06T16:54:22.966Z,18.40
2022-10-06T16:56:57.183Z,18.50
2022-10-06T16:59:28.741Z,18.40
2022-10-06T17:01:55.615Z,18.40
2022-10-06T17:04:25.350Z,18.40
2022-10-06T17:06:54.268Z,18.30
2022-10-06T17:09:26.081Z,18.30
2022-10-06T17:11:58.745Z,18.30
2022-10-06T17:14:26.593Z,18.20
2022-10-06T17:16:55.758Z,18.20
2022-10-06T17:19:24.785Z,18.10
2022-10-06T17:21:57.331Z,18.10
2022-10-06T17:24:28.968Z,18.00
2022-10-06T17:26:57.001Z,18.00
2022-10-06T17:29:24.185Z,17.90
2022-10-06T17:31:59.277Z,17.80
2022-10-06T17:34:31.809Z,17.80
2022-10-06T17:36:59.880Z,17.80
2022-10-06T17:39:26.541Z,17.70
2022-10-06T17:41:53.652Z,17.70
2022-10-06T17:44:23.509Z,17.70
2022-10-06T17:46:53.694Z,17.60
2022-10-06T17:49:21.967Z,17.60
2022-10-06T17:51:49.927Z,17.60
2022-10-06T17:54:19.841Z,17.60
2022-10-06T17:56:52.275Z,17.50
2022-10-06T17:59:28.726Z,17.50
2022-10-06T18:01:56.841Z,17.50
2022-10-06T18:04:24.191Z,17.50
2022-10-06T18:06:52.963Z,17.50
2022-10-06T18:09:20.163Z,17.40
2022-10-06T18:11:54.768Z,17.40
2022-10-06T18:14:23.261Z,17.40
2022-10-06T18:16:56.593Z,17.30
2022-10-06T18:19:29.986Z,17.20
2022-10-06T18:22:00.246Z,17.20
2022-10-06T18:24:28.945Z,17.10
2022-10-06T18:26:57.246Z,17.10
2022-10-06T18:29:27.893Z,17.10
2022-10-06T18:31:57.131Z,17.10
2022-10-06T18:37:18.329Z,17.10
2022-10-06T18:39:44.986Z,17.00
2022-10-06T18:42:11.566Z,17.00
2022-10-06T18:44:56.941Z,17.00
2022-10-06T18:47:42.303Z,17.00
2022-10-06T18:50:09.372Z,16.90
2022-10-06T18:52:35.943Z,16.90
2022-10-06T18:55:02.611Z,16.90
2022-10-06T18:57:29.359Z,16.90
2022-10-06T18:59:56.006Z,16.80
2022-10-06T19:02:22.781Z,16.80
2022-10-06T19:04:49.472Z,16.80
2022-10-06T19:07:16.054Z,16.80
2022-10-06T19:09:46.514Z,16.70
2022-10-06T19:12:13.865Z,16.70
2022-10-06T19:14:46.934Z,16.70
2022-10-06T19:17:14.992Z,16.60
2022-10-06T19:19:54.874Z,16.60
2022-10-06T19:22:24.570Z,16.60
2022-10-06T19:24:52.109Z,16.60
2022-10-06T19:27:24.152Z,16.50
2022-10-06T19:29:53.946Z,16.50
2022-10-06T19:32:24.770Z,16.50
2022-10-06T19:34:52.171Z,16.40
2022-10-06T19:37:19.226Z,16.30
2022-10-06T19:39:48.022Z,16.30
2022-10-06T19:42:35.075Z,16.20
2022-10-06T19:45:02.542Z,16.20
2022-10-06T19:47:29.656Z,16.20
2022-10-06T19:50:00.876Z,16.10
2022-10-06T19:52:28.874Z,16.20
2022-10-06T19:54:55.449Z,16.10
2022-10-06T19:57:22.046Z,16.20
2022-10-06T19:59:50.706Z,16.10
2022-10-06T20:02:17.301Z,16.10
2022-10-06T20:04:45.238Z,16.00
2022-10-06T20:07:11.894Z,16.00
2022-10-06T20:09:38.617Z,16.00
2022-10-06T20:12:05.863Z,15.90
2022-10-06T20:14:32.542Z,15.90
2022-10-06T20:16:59.224Z,15.80
2022-10-06T20:19:25.910Z,15.80
2022-10-06T20:21:53.224Z,15.80
2022-10-06T20:24:25.702Z,15.80
2022-10-06T20:26:53.694Z,15.70
2022-10-06T20:29:22.899Z,15.70
2022-10-06T20:31:54.434Z,15.70
2022-10-06T20:34:23.775Z,15.70
2022-10-06T20:36:55.566Z,15.70
2022-10-06T20:39:41.671Z,15.70
2022-10-06T20:42:13.875Z,15.60
2022-10-06T20:44:42.166Z,15.60
2022-10-06T20:47:10.148Z,15.50
2022-10-06T20:49:37.049Z,15.50
2022-10-06T20:52:04.502Z,15.50
2022-10-06T20:54:34.584Z,15.40
2022-10-06T20:57:03.846Z,15.40
2022-10-06T20:59:31.520Z,15.30
2022-10-06T21:02:00.986Z,15.20
2022-10-06T21:04:28.334Z,15.20
2022-10-06T21:06:54.994Z,15.20
2022-10-06T21:09:22.620Z,15.10
2022-10-06T21:11:49.233Z,15.10
2022-10-06T21:14:16.031Z,15.00
2022-10-06T21:16:44.942Z,15.00
2022-10-06T21:19:16.995Z,15.00
2022-10-06T21:21:49.629Z,14.90
2022-10-06T21:24:16.717Z,14.90
2022-10-06T21:26:43.541Z,14.80
2022-10-06T21:29:12.753Z,14.80
2022-10-06T21:31:39.413Z,14.70
2022-10-06T21:34:06.112Z,14.80
2022-10-06T21:36:32.826Z,14.70
2022-10-06T21:39:06.809Z,14.70
2022-10-06T21:41:38.645Z,14.70
2022-10-06T21:44:08.487Z,14.60
2022-10-06T21:46:50.007Z,14.60
2022-10-06T21:49:21.452Z,14.60
2022-10-06T21:51:50.963Z,14.50
2022-10-06T21:54:18.511Z,14.40
2022-10-06T21:56:45.426Z,14.40
2022-10-06T21:59:12.519Z,14.30
2022-10-06T22:01:44.251Z,14.30
2022-10-06T22:04:14.853Z,14.20
2022-10-06T22:06:42.861Z,14.20
2022-10-06T22:09:13.632Z,14.20
2022-10-06T22:11:40.372Z,14.10
2022-10-06T22:14:14.816Z,14.10
2022-10-06T22:16:42.108Z,14.00
2022-10-06T22:19:11.494Z,14.00
2022-10-06T22:21:41.023Z,14.00
2022-10-06T22:24:19.815Z,14.00
2022-10-06T22:26:47.096Z,14.00
2022-10-06T22:29:15.619Z,13.90
2022-10-06T22:31:44.430Z,14.00
2022-10-06T22:34:13.515Z,14.00
2022-10-06T22:36:40.183Z,14.00
2022-10-06T22:39:07.445Z,14.00
2022-10-06T22:41:34.328Z,14.00
2022-10-06T22:44:01.134Z,14.00
2022-10-06T22:46:33.084Z,14.00
2022-10-06T22:48:59.747Z,13.90
2022-10-06T22:51:26.547Z,13.90
2022-10-06T22:53:57.856Z,13.90
2022-10-06T22:56:26.570Z,13.80
2022-10-06T22:58:53.153Z,13.80
2022-10-06T23:01:20.656Z,13.80
2022-10-06T23:03:47.660Z,13.70
2022-10-06T23:06:17.061Z,13.70
2022-10-06T23:08:44.433Z,13.60
2022-10-06T23:11:13.960Z,13.50
2022-10-06T23:13:41.545Z,13.60
2022-10-06T23:16:10.510Z,13.50
2022-10-06T23:18:39.239Z,13.50
2022-10-06T23:21:10.154Z,13.40
2022-10-06T23:23:37.133Z,13.40
2022-10-06T23:26:06.441Z,13.30
2022-10-06T23:28:33.794Z,13.30
2022-10-06T23:31:00.500Z,13.30
2022-10-06T23:33:31.068Z,13.30
2022-10-06T23:36:03.483Z,13.30
2022-10-06T23:38:30.146Z,13.30
2022-10-06T23:40:56.850Z,13.30
2022-10-06T23:43:23.998Z,13.30
2022-10-06T23:45:50.778Z,13.30
2022-10-06T23:48:17.923Z,13.20
2022-10-06T23:51:01.765Z,13.20
2022-10-06T23:53:29.827Z,13.20
2022-10-06T23:55:56.941Z,13.20
2022-10-06T23:58:23.916Z,13.10
